Porthos — FM2710 — position and weather

sailwx.info

Track history (hours):
 
Tides and Currents Weather Stations Pressure Air Temp Water Temp Dewpoint Dewpoint Depression Visibility Wind Speed Wind Dir Waves Ship Positions

Porthos

Last reported at 2016-Apr-10 09:20 UTC. Time now 2016-Jul-01 06:20 UTC.
Position N 48°46' E 002°25'.
Warning: this ship's position is months out of date.

Length 39 m; draft 3 m.

Type: Ship (hazmat cat A). MMSI: 226002650.

Date/timePositionNaut miles runAvg speedWind from/ knotsBaromVisibWave heightAir tempDewpointWater temp
2016-Apr-10 09:20N 48°46' E 002°25'3 3.8
2016-Apr-10 08:33N 48°49' E 002°24'5 4.6
2016-Apr-10 07:34N 48°52' E 002°18'2 1.6
2016-Apr-10 06:04N 48°53' E 002°15'3 1.6
2016-Apr-10 04:17N 48°56' E 002°14'8 0.5
2016-Apr-09 13:33N 48°56' E 002°02'77 1.7
2016-Apr-07 15:33N 49°30' E 000°15'2 2.3
2016-Apr-07 14:32N 49°28' E 000°12'0 0.0
2016-Apr-07 13:32N 49°28' E 000°12'0 0.0
2016-Apr-07 12:32N 49°28' E 000°12'0 0.0
2016-Apr-07 11:23N 49°28' E 000°12'0 0.0
2016-Apr-07 10:32N 49°28' E 000°12'0 0.0
2016-Apr-07 09:32N 49°28' E 000°12'0 0.0
2016-Apr-07 08:33N 49°28' E 000°12'2 2.0
2016-Apr-07 07:33N 49°29' E 000°09'0 0.0
2016-Apr-07 06:30N 49°29' E 000°09'0 0.0
2016-Apr-07 05:30N 49°29' E 000°09'0 0.0
2016-Apr-07 04:33N 49°29' E 000°09'0 0.0
2016-Apr-07 03:33N 49°29' E 000°09'0 0.0
2016-Apr-07 02:33N 49°29' E 000°09'0 0.0
2016-Apr-07 01:33N 49°29' E 000°09'0 0.0
2016-Apr-07 00:33N 49°29' E 000°09'0 0.0
2016-Apr-06 23:33N 49°29' E 000°09'0 0.0
2016-Apr-06 22:33N 49°29' E 000°09'0 0.0
2016-Apr-06 21:30N 49°29' E 000°09'0 0.0
2016-Apr-06 20:33N 49°29' E 000°09'0 0.0
2016-Apr-06 19:33N 49°29' E 000°09'0 0.0
2016-Apr-06 18:33N 49°29' E 000°09'0 0.0
2016-Apr-06 17:33N 49°29' E 000°09'0 0.0
2016-Apr-06 16:30N 49°29' E 000°09'0 0.0
2016-Apr-06 15:33N 49°29' E 000°09'0 0.0
2016-Apr-06 14:33N 49°29' E 000°09'0 0.0
2016-Apr-06 13:33N 49°29' E 000°09'0 0.0
2016-Apr-06 12:33N 49°29' E 000°09'0 0.0
2016-Apr-06 11:33N 49°29' E 000°09'0 0.0
2016-Apr-06 10:33N 49°29' E 000°09'0 0.0
2016-Apr-06 09:30N 49°29' E 000°09'0 0.0
2016-Apr-06 08:33N 49°29' E 000°09'0 0.0
2016-Apr-06 07:33N 49°29' E 000°09'0 0.0
2016-Apr-06 06:33N 49°29' E 000°09'0 0.0
2016-Apr-06 05:33N 49°29' E 000°09'0 0.0
2016-Apr-06 04:33N 49°29' E 000°09'0 0.0
2016-Apr-06 03:33N 49°29' E 000°09'0 0.0
2016-Apr-06 02:33N 49°29' E 000°09'0 0.0
2016-Apr-06 01:33N 49°29' E 000°09'0 0.0
2016-Apr-06 00:33N 49°29' E 000°09'0 0.0
2016-Apr-05 23:33N 49°29' E 000°09'0 0.0
2016-Apr-05 22:33N 49°29' E 000°09'0 0.0
2016-Apr-05 21:33N 49°29' E 000°09'0 0.0
2016-Apr-05 20:33N 49°29' E 000°09'0 0.0
2016-Apr-05 19:33N 49°29' E 000°09'0 0.0
2016-Apr-05 18:33N 49°29' E 000°09'0 0.0
2016-Apr-05 17:30N 49°29' E 000°09'0 0.0
2016-Apr-05 16:24N 49°29' E 000°09'0 0.0
2016-Apr-05 15:33N 49°29' E 000°09'0 0.0
2016-Apr-05 14:33N 49°29' E 000°09'0 0.0
2016-Apr-05 13:33N 49°29' E 000°09'0 0.0
2016-Apr-05 12:33N 49°29' E 000°09'0 0.0
2016-Apr-05 11:33N 49°29' E 000°09'0 0.0
2016-Apr-05 10:33N 49°29' E 000°09'0 0.0
2016-Apr-05 09:33N 49°29' E 000°09'0 0.0
2016-Apr-05 08:33N 49°29' E 000°09'0 0.0
2016-Apr-05 07:33N 49°29' E 000°09'0 0.0
2016-Apr-05 06:33N 49°29' E 000°09'0 0.0
2016-Apr-05 05:33N 49°29' E 000°09'0 0.0
2016-Apr-05 04:33N 49°29' E 000°09'0 0.0
2016-Apr-05 03:33N 49°29' E 000°09'0 0.0
2016-Apr-05 02:33N 49°29' E 000°09'0 0.0
2016-Apr-05 01:33N 49°29' E 000°09'0 0.0
2016-Apr-05 00:33N 49°29' E 000°09'0 0.0
2016-Apr-04 23:33N 49°29' E 000°09'0 0.0
2016-Apr-04 22:33N 49°29' E 000°09'0 0.0
2016-Apr-04 21:33N 49°29' E 000°09'0 0.0
2016-Apr-04 20:33N 49°29' E 000°09'0 0.0
2016-Apr-04 19:30N 49°29' E 000°09'0 0.0
2016-Apr-04 18:33N 49°29' E 000°09'0 0.0
2016-Apr-04 17:33N 49°29' E 000°09'2 2.3
2016-Apr-04 16:33N 49°30' E 000°13'  
Track history (hours):
 
Tides and Currents Weather Stations Pressure Air Temp Water Temp Dewpoint Dewpoint Depression Visibility Wind Speed Wind Dir Waves Ship Positions

Porthos

Last reported at 2016-Apr-10 09:20 UTC. Time now 2016-Jul-01 06:20 UTC.
Position N 48°46' E 002°25'.
Warning: this ship's position is months out of date.

Length 39 m; draft 3 m.

Type: Ship (hazmat cat A). MMSI: 226002650.

Date/timePositionNaut miles runAvg speedWind from/ knotsBaromVisibWave heightAir tempDewpointWater temp
2016-Apr-10 09:20N 48°46' E 002°25'3 3.8
2016-Apr-10 08:33N 48°49' E 002°24'5 4.6
2016-Apr-10 07:34N 48°52' E 002°18'2 1.6
2016-Apr-10 06:04N 48°53' E 002°15'3 1.6
2016-Apr-10 04:17N 48°56' E 002°14'8 0.5
2016-Apr-09 13:33N 48°56' E 002°02'77 1.7
2016-Apr-07 15:33N 49°30' E 000°15'2 2.3
2016-Apr-07 14:32N 49°28' E 000°12'0 0.0
2016-Apr-07 13:32N 49°28' E 000°12'0 0.0
2016-Apr-07 12:32N 49°28' E 000°12'0 0.0
2016-Apr-07 11:23N 49°28' E 000°12'0 0.0
2016-Apr-07 10:32N 49°28' E 000°12'0 0.0
2016-Apr-07 09:32N 49°28' E 000°12'0 0.0
2016-Apr-07 08:33N 49°28' E 000°12'2 2.0
2016-Apr-07 07:33N 49°29' E 000°09'0 0.0
2016-Apr-07 06:30N 49°29' E 000°09'0 0.0
2016-Apr-07 05:30N 49°29' E 000°09'0 0.0
2016-Apr-07 04:33N 49°29' E 000°09'0 0.0
2016-Apr-07 03:33N 49°29' E 000°09'0 0.0
2016-Apr-07 02:33N 49°29' E 000°09'0 0.0
2016-Apr-07 01:33N 49°29' E 000°09'0 0.0
2016-Apr-07 00:33N 49°29' E 000°09'0 0.0
2016-Apr-06 23:33N 49°29' E 000°09'0 0.0
2016-Apr-06 22:33N 49°29' E 000°09'0 0.0
2016-Apr-06 21:30N 49°29' E 000°09'0 0.0
2016-Apr-06 20:33N 49°29' E 000°09'0 0.0
2016-Apr-06 19:33N 49°29' E 000°09'0 0.0
2016-Apr-06 18:33N 49°29' E 000°09'0 0.0
2016-Apr-06 17:33N 49°29' E 000°09'0 0.0
2016-Apr-06 16:30N 49°29' E 000°09'0 0.0
2016-Apr-06 15:33N 49°29' E 000°09'0 0.0
2016-Apr-06 14:33N 49°29' E 000°09'0 0.0
2016-Apr-06 13:33N 49°29' E 000°09'0 0.0
2016-Apr-06 12:33N 49°29' E 000°09'0 0.0
2016-Apr-06 11:33N 49°29' E 000°09'0 0.0
2016-Apr-06 10:33N 49°29' E 000°09'0 0.0
2016-Apr-06 09:30N 49°29' E 000°09'0 0.0
2016-Apr-06 08:33N 49°29' E 000°09'0 0.0
2016-Apr-06 07:33N 49°29' E 000°09'0 0.0
2016-Apr-06 06:33N 49°29' E 000°09'0 0.0
2016-Apr-06 05:33N 49°29' E 000°09'0 0.0
2016-Apr-06 04:33N 49°29' E 000°09'0 0.0
2016-Apr-06 03:33N 49°29' E 000°09'0 0.0
2016-Apr-06 02:33N 49°29' E 000°09'0 0.0
2016-Apr-06 01:33N 49°29' E 000°09'0 0.0
2016-Apr-06 00:33N 49°29' E 000°09'0 0.0
2016-Apr-05 23:33N 49°29' E 000°09'0 0.0
2016-Apr-05 22:33N 49°29' E 000°09'0 0.0
2016-Apr-05 21:33N 49°29' E 000°09'0 0.0
2016-Apr-05 20:33N 49°29' E 000°09'0 0.0
2016-Apr-05 19:33N 49°29' E 000°09'0 0.0
2016-Apr-05 18:33N 49°29' E 000°09'0 0.0
2016-Apr-05 17:30N 49°29' E 000°09'0 0.0
2016-Apr-05 16:24N 49°29' E 000°09'0 0.0
2016-Apr-05 15:33N 49°29' E 000°09'0 0.0
2016-Apr-05 14:33N 49°29' E 000°09'0 0.0
2016-Apr-05 13:33N 49°29' E 000°09'0 0.0
2016-Apr-05 12:33N 49°29' E 000°09'0 0.0
2016-Apr-05 11:33N 49°29' E 000°09'0 0.0
2016-Apr-05 10:33N 49°29' E 000°09'0 0.0
2016-Apr-05 09:33N 49°29' E 000°09'0 0.0
2016-Apr-05 08:33N 49°29' E 000°09'0 0.0
2016-Apr-05 07:33N 49°29' E 000°09'0 0.0
2016-Apr-05 06:33N 49°29' E 000°09'0 0.0
2016-Apr-05 05:33N 49°29' E 000°09'0 0.0
2016-Apr-05 04:33N 49°29' E 000°09'0 0.0
2016-Apr-05 03:33N 49°29' E 000°09'0 0.0
2016-Apr-05 02:33N 49°29' E 000°09'0 0.0
2016-Apr-05 01:33N 49°29' E 000°09'0 0.0
2016-Apr-05 00:33N 49°29' E 000°09'0 0.0
2016-Apr-04 23:33N 49°29' E 000°09'0 0.0
2016-Apr-04 22:33N 49°29' E 000°09'0 0.0
2016-Apr-04 21:33N 49°29' E 000°09'0 0.0
2016-Apr-04 20:33N 49°29' E 000°09'0 0.0
2016-Apr-04 19:30N 49°29' E 000°09'0 0.0
2016-Apr-04 18:33N 49°29' E 000°09'0 0.0
2016-Apr-04 17:33N 49°29' E 000°09'2 2.3
2016-Apr-04 16:33N 49°30' E 000°13'  

Dump ship's entire track history